Ruby Corner, New York
Current Conditions -  °F | °C
As of 5:58 AM on Friday 31 Oct 2014 (Local Time) from KGTB Reporting Station
Broken Clouds Broken Clouds  
Wind Chill: 32°   Ceiling: 16000
Heat Index: 32°   Visibility: 10mi
Dew Point: 32°   Wind: 2mph
Humidity: 99%   Direction: 150°SSE
Pressure: 30"   Gusts: NA
Location:  44.435°N, 75.6656°W
Report Text: KGTB 310958Z AUTO 15002KT 10SM FEW130 BKN160 00/00 A3000 RMK AO2 CIG 120 RWY03 SLP166 T10001001
Loading
Personal Weather Stations






























Interactive Weather Map
Tropical Storm Tracking
New forecast layout! Learn more

10-Day Weather Forecast

Advertisements
Track Severe Weather on mobile